sensor_id;sensor_type;location;lat;lon;timestamp;temperature;humidity
23079;DHT22;11707;50.830;4.364;2022-08-19T00:02:23;21.00;99.90
23079;DHT22;11707;50.830;4.364;2022-08-19T00:04:49;21.00;99.90
23079;DHT22;11707;50.830;4.364;2022-08-19T00:07:18;20.90;99.90
23079;DHT22;11707;50.830;4.364;2022-08-19T00:09:44;20.80;99.90
23079;DHT22;11707;50.830;4.364;2022-08-19T00:12:10;20.80;99.90
23079;DHT22;11707;50.830;4.364;2022-08-19T00:14:37;20.70;99.90
23079;DHT22;11707;50.830;4.364;2022-08-19T00:17:04;20.60;99.90
23079;DHT22;11707;50.830;4.364;2022-08-19T00:19:30;20.50;99.90
23079;DHT22;11707;50.830;4.364;2022-08-19T00:21:56;20.50;99.90
23079;DHT22;11707;50.830;4.364;2022-08-19T00:24:22;20.50;99.90
23079;DHT22;11707;50.830;4.364;2022-08-19T00:26:48;20.50;99.90
23079;DHT22;11707;50.830;4.364;2022-08-19T00:29:17;20.50;99.90
23079;DHT22;11707;50.830;4.364;2022-08-19T00:31:44;20.50;99.90
23079;DHT22;11707;50.830;4.364;2022-08-19T00:34:10;20.40;99.90
23079;DHT22;11707;50.830;4.364;2022-08-19T00:36:37;20.30;99.90
23079;DHT22;11707;50.830;4.364;2022-08-19T00:39:03;20.20;99.90
23079;DHT22;11707;50.830;4.364;2022-08-19T00:41:35;20.10;99.90
23079;DHT22;11707;50.830;4.364;2022-08-19T00:46:31;20.00;99.90
23079;DHT22;11707;50.830;4.364;2022-08-19T00:48:59;20.00;99.90
23079;DHT22;11707;50.830;4.364;2022-08-19T00:51:30;20.10;99.90
23079;DHT22;11707;50.830;4.364;2022-08-19T00:53:58;20.10;99.90
23079;DHT22;11707;50.830;4.364;2022-08-19T00:56:26;20.20;99.90
23079;DHT22;11707;50.830;4.364;2022-08-19T00:58:55;20.10;99.90
23079;DHT22;11707;50.830;4.364;2022-08-19T01:01:21;20.20;99.90
23079;DHT22;11707;50.830;4.364;2022-08-19T01:03:47;20.20;99.90
23079;DHT22;11707;50.830;4.364;2022-08-19T01:06:13;20.10;99.90
23079;DHT22;11707;50.830;4.364;2022-08-19T01:08:40;20.10;99.90
23079;DHT22;11707;50.830;4.364;2022-08-19T01:11:06;20.10;99.90
23079;DHT22;11707;50.830;4.364;2022-08-19T01:13:33;20.10;99.90
23079;DHT22;11707;50.830;4.364;2022-08-19T01:16:06;20.00;99.90
23079;DHT22;11707;50.830;4.364;2022-08-19T01:18:36;19.80;99.90
23079;DHT22;11707;50.830;4.364;2022-08-19T01:21:09;19.80;99.90
23079;DHT22;11707;50.830;4.364;2022-08-19T01:23:36;19.70;99.90
23079;DHT22;11707;50.830;4.364;2022-08-19T01:26:11;19.80;99.90
23079;DHT22;11707;50.830;4.364;2022-08-19T01:28:37;19.80;99.90
23079;DHT22;11707;50.830;4.364;2022-08-19T01:31:04;19.80;99.90
23079;DHT22;11707;50.830;4.364;2022-08-19T01:33:30;19.70;99.90
23079;DHT22;11707;50.830;4.364;2022-08-19T01:36:39;19.50;99.90
23079;DHT22;11707;50.830;4.364;2022-08-19T01:39:05;19.50;99.90
23079;DHT22;11707;50.830;4.364;2022-08-19T01:41:31;19.40;99.90
23079;DHT22;11707;50.830;4.364;2022-08-19T01:43:57;19.40;99.90
23079;DHT22;11707;50.830;4.364;2022-08-19T01:46:23;19.30;99.90
23079;DHT22;11707;50.830;4.364;2022-08-19T01:48:48;19.30;99.90
23079;DHT22;11707;50.830;4.364;2022-08-19T01:51:15;19.30;99.90
23079;DHT22;11707;50.830;4.364;2022-08-19T01:53:41;19.30;99.90
23079;DHT22;11707;50.830;4.364;2022-08-19T01:56:07;19.30;99.90
23079;DHT22;11707;50.830;4.364;2022-08-19T01:58:39;19.30;99.90
23079;DHT22;11707;50.830;4.364;2022-08-19T02:01:07;19.40;99.90
23079;DHT22;11707;50.830;4.364;2022-08-19T02:03:34;19.40;99.90
23079;DHT22;11707;50.830;4.364;2022-08-19T02:06:03;19.30;99.90
23079;DHT22;11707;50.830;4.364;2022-08-19T02:08:33;19.20;99.90
23079;DHT22;11707;50.830;4.364;2022-08-19T02:11:04;19.20;99.90
23079;DHT22;11707;50.830;4.364;2022-08-19T02:13:30;19.20;99.90
23079;DHT22;11707;50.830;4.364;2022-08-19T02:15:56;19.10;99.90
23079;DHT22;11707;50.830;4.364;2022-08-19T02:18:23;19.10;99.90
23079;DHT22;11707;50.830;4.364;2022-08-19T02:20:49;19.10;99.90
23079;DHT22;11707;50.830;4.364;2022-08-19T02:23:16;19.10;99.90
23079;DHT22;11707;50.830;4.364;2022-08-19T02:25:44;19.10;99.90
23079;DHT22;11707;50.830;4.364;2022-08-19T02:28:10;19.00;99.90
23079;DHT22;11707;50.830;4.364;2022-08-19T02:30:37;18.80;99.90
23079;DHT22;11707;50.830;4.364;2022-08-19T02:33:04;18.80;99.90
23079;DHT22;11707;50.830;4.364;2022-08-19T02:35:30;18.60;99.90
23079;DHT22;11707;50.830;4.364;2022-08-19T02:37:56;18.60;99.90
23079;DHT22;11707;50.830;4.364;2022-08-19T02:40:47;18.50;99.90
23079;DHT22;11707;50.830;4.364;2022-08-19T02:43:14;18.50;99.90
23079;DHT22;11707;50.830;4.364;2022-08-19T02:45:41;18.50;99.90
23079;DHT22;11707;50.830;4.364;2022-08-19T02:48:06;18.40;99.90
23079;DHT22;11707;50.830;4.364;2022-08-19T02:50:37;18.50;99.90
23079;DHT22;11707;50.830;4.364;2022-08-19T02:53:04;18.50;99.90
23079;DHT22;11707;50.830;4.364;2022-08-19T02:55:30;18.60;99.90
23079;DHT22;11707;50.830;4.364;2022-08-19T02:57:55;18.50;99.90
23079;DHT22;11707;50.830;4.364;2022-08-19T03:00:22;18.40;99.90
23079;DHT22;11707;50.830;4.364;2022-08-19T03:02:49;18.30;99.90
23079;DHT22;11707;50.830;4.364;2022-08-19T03:05:15;18.30;99.90
23079;DHT22;11707;50.830;4.364;2022-08-19T03:07:41;18.30;99.90
23079;DHT22;11707;50.830;4.364;2022-08-19T03:10:07;18.30;99.90
23079;DHT22;11707;50.830;4.364;2022-08-19T03:12:36;18.40;99.90
23079;DHT22;11707;50.830;4.364;2022-08-19T03:15:02;18.30;99.90
23079;DHT22;11707;50.830;4.364;2022-08-19T03:17:28;18.30;99.90
23079;DHT22;11707;50.830;4.364;2022-08-19T03:19:53;18.30;99.90
23079;DHT22;11707;50.830;4.364;2022-08-19T03:22:19;18.30;99.90
23079;DHT22;11707;50.830;4.364;2022-08-19T03:24:45;18.20;99.90
23079;DHT22;11707;50.830;4.364;2022-08-19T03:27:10;18.30;99.90
23079;DHT22;11707;50.830;4.364;2022-08-19T03:29:38;18.30;99.90
23079;DHT22;11707;50.830;4.364;2022-08-19T03:32:05;18.30;99.90
23079;DHT22;11707;50.830;4.364;2022-08-19T03:34:33;18.30;99.90
23079;DHT22;11707;50.830;4.364;2022-08-19T03:37:07;18.30;99.90
23079;DHT22;11707;50.830;4.364;2022-08-19T03:39:33;18.10;99.90
23079;DHT22;11707;50.830;4.364;2022-08-19T03:41:59;18.00;99.90
23079;DHT22;11707;50.830;4.364;2022-08-19T03:44:29;17.90;99.90
23079;DHT22;11707;50.830;4.364;2022-08-19T03:46:56;17.90;99.90
23079;DHT22;11707;50.830;4.364;2022-08-19T03:49:25;17.90;99.90
23079;DHT22;11707;50.830;4.364;2022-08-19T03:51:54;17.90;99.90
23079;DHT22;11707;50.830;4.364;2022-08-19T03:54:22;17.90;99.90
23079;DHT22;11707;50.830;4.364;2022-08-19T03:56:50;17.90;99.90
23079;DHT22;11707;50.830;4.364;2022-08-19T03:59:27;17.90;99.90
23079;DHT22;11707;50.830;4.364;2022-08-19T04:01:59;17.90;99.90
23079;DHT22;11707;50.830;4.364;2022-08-19T04:04:25;17.90;99.90
23079;DHT22;11707;50.830;4.364;2022-08-19T04:06:52;17.80;99.90
23079;DHT22;11707;50.830;4.364;2022-08-19T04:09:19;17.60;99.90
23079;DHT22;11707;50.830;4.364;2022-08-19T04:11:50;17.60;99.90
23079;DHT22;11707;50.830;4.364;2022-08-19T04:14:22;17.50;99.90
23079;DHT22;11707;50.830;4.364;2022-08-19T04:16:48;17.40;99.90
23079;DHT22;11707;50.830;4.364;2022-08-19T04:19:16;17.40;99.90
23079;DHT22;11707;50.830;4.364;2022-08-19T04:21:44;17.30;99.90
23079;DHT22;11707;50.830;4.364;2022-08-19T04:24:11;17.20;99.90
23079;DHT22;11707;50.830;4.364;2022-08-19T04:26:37;17.30;99.90
23079;DHT22;11707;50.830;4.364;2022-08-19T04:29:11;17.20;99.90
23079;DHT22;11707;50.830;4.364;2022-08-19T04:31:37;17.20;99.90
23079;DHT22;11707;50.830;4.364;2022-08-19T04:34:05;17.40;99.90
23079;DHT22;11707;50.830;4.364;2022-08-19T04:36:34;17.60;99.90
23079;DHT22;11707;50.830;4.364;2022-08-19T04:39:03;17.60;99.90
23079;DHT22;11707;50.830;4.364;2022-08-19T04:41:29;17.50;99.90
23079;DHT22;11707;50.830;4.364;2022-08-19T04:44:14;17.50;99.90
23079;DHT22;11707;50.830;4.364;2022-08-19T04:46:43;17.50;99.90
23079;DHT22;11707;50.830;4.364;2022-08-19T04:49:09;17.60;99.90
23079;DHT22;11707;50.830;4.364;2022-08-19T04:51:35;17.50;99.90
23079;DHT22;11707;50.830;4.364;2022-08-19T04:54:03;17.40;99.90
23079;DHT22;11707;50.830;4.364;2022-08-19T04:56:29;17.40;99.90
23079;DHT22;11707;50.830;4.364;2022-08-19T04:58:55;17.40;99.90
23079;DHT22;11707;50.830;4.364;2022-08-19T05:01:24;17.50;99.90
23079;DHT22;11707;50.830;4.364;2022-08-19T05:03:51;17.50;99.90
23079;DHT22;11707;50.830;4.364;2022-08-19T05:06:18;17.50;99.90
23079;DHT22;11707;50.830;4.364;2022-08-19T05:08:45;17.60;99.90
23079;DHT22;11707;50.830;4.364;2022-08-19T05:11:24;17.60;99.90
23079;DHT22;11707;50.830;4.364;2022-08-19T05:13:51;17.60;99.90
23079;DHT22;11707;50.830;4.364;2022-08-19T05:16:20;17.60;99.90
23079;DHT22;11707;50.830;4.364;2022-08-19T05:18:46;17.80;99.90
23079;DHT22;11707;50.830;4.364;2022-08-19T05:21:31;17.90;99.90
23079;DHT22;11707;50.830;4.364;2022-08-19T05:24:15;18.00;99.90
23079;DHT22;11707;50.830;4.364;2022-08-19T05:26:44;18.20;99.90
23079;DHT22;11707;50.830;4.364;2022-08-19T05:29:15;18.30;99.90
23079;DHT22;11707;50.830;4.364;2022-08-19T05:31:42;18.40;99.90
23079;DHT22;11707;50.830;4.364;2022-08-19T05:34:09;18.40;99.90
23079;DHT22;11707;50.830;4.364;2022-08-19T05:36:38;18.40;99.90
23079;DHT22;11707;50.830;4.364;2022-08-19T05:39:08;18.50;99.90
23079;DHT22;11707;50.830;4.364;2022-08-19T05:41:33;18.50;99.90
23079;DHT22;11707;50.830;4.364;2022-08-19T05:44:04;18.50;99.90
23079;DHT22;11707;50.830;4.364;2022-08-19T05:46:38;18.40;99.90
23079;DHT22;11707;50.830;4.364;2022-08-19T05:49:05;18.40;99.90
23079;DHT22;11707;50.830;4.364;2022-08-19T05:51:33;18.40;99.90
23079;DHT22;11707;50.830;4.364;2022-08-19T05:54:02;18.50;99.90
23079;DHT22;11707;50.830;4.364;2022-08-19T05:56:28;18.70;99.90
23079;DHT22;11707;50.830;4.364;2022-08-19T05:58:56;18.70;99.90
23079;DHT22;11707;50.830;4.364;2022-08-19T06:01:24;18.80;99.90
23079;DHT22;11707;50.830;4.364;2022-08-19T06:03:51;19.00;99.90
23079;DHT22;11707;50.830;4.364;2022-08-19T06:06:17;19.10;99.90
23079;DHT22;11707;50.830;4.364;2022-08-19T06:08:43;19.10;99.90
23079;DHT22;11707;50.830;4.364;2022-08-19T06:11:20;19.30;99.90
23079;DHT22;11707;50.830;4.364;2022-08-19T06:13:49;19.30;99.90
23079;DHT22;11707;50.830;4.364;2022-08-19T06:16:21;19.40;99.90
23079;DHT22;11707;50.830;4.364;2022-08-19T06:18:55;19.60;99.90
23079;DHT22;11707;50.830;4.364;2022-08-19T06:21:25;19.40;99.90
23079;DHT22;11707;50.830;4.364;2022-08-19T06:23:52;19.30;99.90
23079;DHT22;11707;50.830;4.364;2022-08-19T06:26:19;19.20;99.90
23079;DHT22;11707;50.830;4.364;2022-08-19T06:28:46;19.00;99.90
23079;DHT22;11707;50.830;4.364;2022-08-19T06:31:14;19.10;99.90
23079;DHT22;11707;50.830;4.364;2022-08-19T06:33:42;19.10;99.90
23079;DHT22;11707;50.830;4.364;2022-08-19T06:36:20;19.30;99.90
23079;DHT22;11707;50.830;4.364;2022-08-19T06:38:46;19.30;99.90
23079;DHT22;11707;50.830;4.364;2022-08-19T06:41:11;19.40;99.90
23079;DHT22;11707;50.830;4.364;2022-08-19T06:43:37;19.50;99.90
23079;DHT22;11707;50.830;4.364;2022-08-19T06:46:03;19.60;99.90
23079;DHT22;11707;50.830;4.364;2022-08-19T06:48:30;19.40;99.90
23079;DHT22;11707;50.830;4.364;2022-08-19T06:50:56;19.40;99.90
23079;DHT22;11707;50.830;4.364;2022-08-19T06:53:22;19.30;99.90
23079;DHT22;11707;50.830;4.364;2022-08-19T06:55:47;19.20;99.90
23079;DHT22;11707;50.830;4.364;2022-08-19T06:58:13;19.40;99.90
23079;DHT22;11707;50.830;4.364;2022-08-19T07:00:40;19.60;99.90
23079;DHT22;11707;50.830;4.364;2022-08-19T07:03:05;19.40;99.90
23079;DHT22;11707;50.830;4.364;2022-08-19T07:05:31;19.20;99.90
23079;DHT22;11707;50.830;4.364;2022-08-19T07:07:57;19.20;99.90
23079;DHT22;11707;50.830;4.364;2022-08-19T07:10:23;19.30;99.90
23079;DHT22;11707;50.830;4.364;2022-08-19T07:12:49;19.30;99.90
23079;DHT22;11707;50.830;4.364;2022-08-19T07:15:15;19.30;99.90
23079;DHT22;11707;50.830;4.364;2022-08-19T07:17:41;19.20;99.90
23079;DHT22;11707;50.830;4.364;2022-08-19T07:20:09;19.30;99.90
23079;DHT22;11707;50.830;4.364;2022-08-19T07:22:38;19.40;99.90
23079;DHT22;11707;50.830;4.364;2022-08-19T07:25:07;19.50;99.90
23079;DHT22;11707;50.830;4.364;2022-08-19T07:27:34;19.50;99.90
23079;DHT22;11707;50.830;4.364;2022-08-19T07:30:00;19.20;99.90
23079;DHT22;11707;50.830;4.364;2022-08-19T07:32:26;19.30;99.90
23079;DHT22;11707;50.830;4.364;2022-08-19T07:34:52;19.30;99.90
23079;DHT22;11707;50.830;4.364;2022-08-19T07:37:17;19.40;99.90
23079;DHT22;11707;50.830;4.364;2022-08-19T07:39:44;19.60;99.90
23079;DHT22;11707;50.830;4.364;2022-08-19T07:42:10;19.70;99.90
23079;DHT22;11707;50.830;4.364;2022-08-19T07:44:37;19.70;99.90
23079;DHT22;11707;50.830;4.364;2022-08-19T07:47:04;19.80;99.90
23079;DHT22;11707;50.830;4.364;2022-08-19T07:49:31;19.90;99.90
23079;DHT22;11707;50.830;4.364;2022-08-19T07:52:04;20.00;99.90
23079;DHT22;11707;50.830;4.364;2022-08-19T07:54:33;20.20;99.90
23079;DHT22;11707;50.830;4.364;2022-08-19T07:57:00;20.20;99.90
23079;DHT22;11707;50.830;4.364;2022-08-19T07:59:26;20.30;99.90
23079;DHT22;11707;50.830;4.364;2022-08-19T08:01:54;20.40;99.90
23079;DHT22;11707;50.830;4.364;2022-08-19T08:04:19;20.60;99.90
23079;DHT22;11707;50.830;4.364;2022-08-19T08:07:05;20.50;99.90
23079;DHT22;11707;50.830;4.364;2022-08-19T08:09:50;20.50;99.90
23079;DHT22;11707;50.830;4.364;2022-08-19T08:12:30;20.60;99.90
23079;DHT22;11707;50.830;4.364;2022-08-19T08:15:00;20.50;99.90
23079;DHT22;11707;50.830;4.364;2022-08-19T08:17:30;20.50;99.90
23079;DHT22;11707;50.830;4.364;2022-08-19T08:19:57;20.50;99.90
23079;DHT22;11707;50.830;4.364;2022-08-19T08:22:24;20.50;99.90
23079;DHT22;11707;50.830;4.364;2022-08-19T08:25:13;20.60;99.90
23079;DHT22;11707;50.830;4.364;2022-08-19T08:27:41;20.70;99.90
23079;DHT22;11707;50.830;4.364;2022-08-19T08:30:13;20.70;99.90
23079;DHT22;11707;50.830;4.364;2022-08-19T08:32:40;20.70;99.90
23079;DHT22;11707;50.830;4.364;2022-08-19T08:35:09;20.70;99.90
23079;DHT22;11707;50.830;4.364;2022-08-19T08:37:35;20.80;99.90
23079;DHT22;11707;50.830;4.364;2022-08-19T08:46:05;20.90;99.90
23079;DHT22;11707;50.830;4.364;2022-08-19T08:48:39;20.90;99.90
23079;DHT22;11707;50.830;4.364;2022-08-19T08:51:12;20.90;99.90
23079;DHT22;11707;50.830;4.364;2022-08-19T08:53:41;20.70;99.90
23079;DHT22;11707;50.830;4.364;2022-08-19T08:56:09;20.70;99.90
23079;DHT22;11707;50.830;4.364;2022-08-19T08:59:00;20.80;99.90
23079;DHT22;11707;50.830;4.364;2022-08-19T09:01:27;20.70;99.90
23079;DHT22;11707;50.830;4.364;2022-08-19T09:03:53;20.80;99.90
23079;DHT22;11707;50.830;4.364;2022-08-19T09:09:27;20.90;99.90
23079;DHT22;11707;50.830;4.364;2022-08-19T09:12:00;20.90;99.90
23079;DHT22;11707;50.830;4.364;2022-08-19T09:17:12;20.90;99.90
23079;DHT22;11707;50.830;4.364;2022-08-19T09:22:17;20.90;99.90
23079;DHT22;11707;50.830;4.364;2022-08-19T09:24:43;21.00;99.90
23079;DHT22;11707;50.830;4.364;2022-08-19T09:27:09;21.20;99.90
23079;DHT22;11707;50.830;4.364;2022-08-19T09:29:35;21.20;99.90
23079;DHT22;11707;50.830;4.364;2022-08-19T09:32:00;21.10;99.90
23079;DHT22;11707;50.830;4.364;2022-08-19T09:34:26;21.20;99.90
23079;DHT22;11707;50.830;4.364;2022-08-19T09:36:54;21.10;99.90
23079;DHT22;11707;50.830;4.364;2022-08-19T09:39:23;21.10;99.90
23079;DHT22;11707;50.830;4.364;2022-08-19T09:41:49;21.10;99.90
23079;DHT22;11707;50.830;4.364;2022-08-19T09:44:18;21.20;99.90
23079;DHT22;11707;50.830;4.364;2022-08-19T09:46:45;21.30;99.90
23079;DHT22;11707;50.830;4.364;2022-08-19T09:49:18;21.40;99.90
23079;DHT22;11707;50.830;4.364;2022-08-19T09:51:50;21.30;99.90
23079;DHT22;11707;50.830;4.364;2022-08-19T09:54:16;21.40;99.90
23079;DHT22;11707;50.830;4.364;2022-08-19T09:56:42;21.50;99.90
23079;DHT22;11707;50.830;4.364;2022-08-19T09:59:08;21.50;99.90
23079;DHT22;11707;50.830;4.364;2022-08-19T10:01:34;21.50;99.90
23079;DHT22;11707;50.830;4.364;2022-08-19T10:04:01;21.60;99.90
23079;DHT22;11707;50.830;4.364;2022-08-19T10:06:29;21.60;99.90
23079;DHT22;11707;50.830;4.364;2022-08-19T10:08:58;21.50;99.90
23079;DHT22;11707;50.830;4.364;2022-08-19T10:11:24;21.50;99.90
23079;DHT22;11707;50.830;4.364;2022-08-19T10:13:50;21.60;99.90
23079;DHT22;11707;50.830;4.364;2022-08-19T10:16:21;21.70;99.90
23079;DHT22;11707;50.830;4.364;2022-08-19T10:18:48;21.70;99.90
23079;DHT22;11707;50.830;4.364;2022-08-19T10:21:17;21.60;99.90
23079;DHT22;11707;50.830;4.364;2022-08-19T10:23:45;21.60;99.90
23079;DHT22;11707;50.830;4.364;2022-08-19T10:26:14;21.70;99.90
23079;DHT22;11707;50.830;4.364;2022-08-19T10:28:40;21.70;99.90
23079;DHT22;11707;50.830;4.364;2022-08-19T10:31:14;21.60;99.90
23079;DHT22;11707;50.830;4.364;2022-08-19T10:33:41;21.80;99.90
23079;DHT22;11707;50.830;4.364;2022-08-19T10:36:11;22.00;99.90
23079;DHT22;11707;50.830;4.364;2022-08-19T10:38:37;22.00;99.90
23079;DHT22;11707;50.830;4.364;2022-08-19T10:41:11;21.90;99.90
23079;DHT22;11707;50.830;4.364;2022-08-19T10:43:37;21.90;99.90
23079;DHT22;11707;50.830;4.364;2022-08-19T10:46:05;22.10;99.90
23079;DHT22;11707;50.830;4.364;2022-08-19T10:48:31;22.20;99.90
23079;DHT22;11707;50.830;4.364;2022-08-19T10:50:58;22.20;99.90
23079;DHT22;11707;50.830;4.364;2022-08-19T10:53:42;22.30;99.90
23079;DHT22;11707;50.830;4.364;2022-08-19T10:56:08;22.00;99.90
23079;DHT22;11707;50.830;4.364;2022-08-19T10:58:53;22.10;99.90
23079;DHT22;11707;50.830;4.364;2022-08-19T11:01:19;22.30;99.90
23079;DHT22;11707;50.830;4.364;2022-08-19T11:03:44;22.30;99.90
23079;DHT22;11707;50.830;4.364;2022-08-19T11:06:11;22.20;99.90
23079;DHT22;11707;50.830;4.364;2022-08-19T11:08:36;22.10;99.90
23079;DHT22;11707;50.830;4.364;2022-08-19T11:11:06;22.00;99.90
23079;DHT22;11707;50.830;4.364;2022-08-19T11:13:37;22.00;99.90
23079;DHT22;11707;50.830;4.364;2022-08-19T11:16:07;21.90;99.90
23079;DHT22;11707;50.830;4.364;2022-08-19T11:18:41;21.80;99.90
23079;DHT22;11707;50.830;4.364;2022-08-19T11:21:11;21.80;99.90
23079;DHT22;11707;50.830;4.364;2022-08-19T11:23:37;22.00;99.90
23079;DHT22;11707;50.830;4.364;2022-08-19T11:26:03;22.20;99.90
23079;DHT22;11707;50.830;4.364;2022-08-19T11:28:28;22.40;99.90
23079;DHT22;11707;50.830;4.364;2022-08-19T11:30:54;22.30;99.90
23079;DHT22;11707;50.830;4.364;2022-08-19T11:33:20;22.50;99.90
23079;DHT22;11707;50.830;4.364;2022-08-19T11:35:45;22.70;99.90
23079;DHT22;11707;50.830;4.364;2022-08-19T11:38:11;22.60;99.90
23079;DHT22;11707;50.830;4.364;2022-08-19T11:40:38;22.60;99.90
23079;DHT22;11707;50.830;4.364;2022-08-19T11:43:05;22.40;99.90
23079;DHT22;11707;50.830;4.364;2022-08-19T11:45:31;22.30;99.90
23079;DHT22;11707;50.830;4.364;2022-08-19T11:47:57;22.20;99.90
23079;DHT22;11707;50.830;4.364;2022-08-19T11:50:23;22.20;99.90
23079;DHT22;11707;50.830;4.364;2022-08-19T11:52:49;22.20;99.90
23079;DHT22;11707;50.830;4.364;2022-08-19T11:55:15;22.10;99.90
23079;DHT22;11707;50.830;4.364;2022-08-19T11:57:41;22.20;99.90
23079;DHT22;11707;50.830;4.364;2022-08-19T12:00:09;22.70;99.90
23079;DHT22;11707;50.830;4.364;2022-08-19T12:02:37;23.10;99.90
23079;DHT22;11707;50.830;4.364;2022-08-19T12:05:03;23.50;99.90
23079;DHT22;11707;50.830;4.364;2022-08-19T12:07:29;24.00;99.90
23079;DHT22;11707;50.830;4.364;2022-08-19T12:09:56;24.20;99.90
23079;DHT22;11707;50.830;4.364;2022-08-19T12:12:22;24.00;99.90
23079;DHT22;11707;50.830;4.364;2022-08-19T12:14:50;23.80;99.90
23079;DHT22;11707;50.830;4.364;2022-08-19T12:17:33;23.60;99.90
23079;DHT22;11707;50.830;4.364;2022-08-19T12:20:00;23.70;99.90
23079;DHT22;11707;50.830;4.364;2022-08-19T12:22:25;23.50;99.90
23079;DHT22;11707;50.830;4.364;2022-08-19T12:24:51;23.50;99.90
23079;DHT22;11707;50.830;4.364;2022-08-19T12:27:19;23.40;99.90
23079;DHT22;11707;50.830;4.364;2022-08-19T12:29:44;23.40;99.90
23079;DHT22;11707;50.830;4.364;2022-08-19T12:32:10;23.50;99.90
23079;DHT22;11707;50.830;4.364;2022-08-19T12:34:35;23.40;99.90
23079;DHT22;11707;50.830;4.364;2022-08-19T12:37:04;23.40;99.90
23079;DHT22;11707;50.830;4.364;2022-08-19T12:39:33;23.40;99.90
23079;DHT22;11707;50.830;4.364;2022-08-19T12:41:58;23.70;99.90
23079;DHT22;11707;50.830;4.364;2022-08-19T12:44:25;23.90;99.90
23079;DHT22;11707;50.830;4.364;2022-08-19T12:46:50;24.00;99.90
23079;DHT22;11707;50.830;4.364;2022-08-19T12:49:16;24.20;99.90
23079;DHT22;11707;50.830;4.364;2022-08-19T12:51:42;24.40;99.90
23079;DHT22;11707;50.830;4.364;2022-08-19T12:54:08;24.60;99.90
23079;DHT22;11707;50.830;4.364;2022-08-19T12:56:34;24.70;99.90
23079;DHT22;11707;50.830;4.364;2022-08-19T12:59:03;25.00;99.90
23079;DHT22;11707;50.830;4.364;2022-08-19T13:01:30;25.10;99.90
23079;DHT22;11707;50.830;4.364;2022-08-19T13:03:58;25.30;99.90
23079;DHT22;11707;50.830;4.364;2022-08-19T13:06:28;25.70;99.90
23079;DHT22;11707;50.830;4.364;2022-08-19T13:08:54;25.70;99.90
23079;DHT22;11707;50.830;4.364;2022-08-19T13:11:21;25.80;99.90
23079;DHT22;11707;50.830;4.364;2022-08-19T13:13:50;25.90;99.90
23079;DHT22;11707;50.830;4.364;2022-08-19T13:16:17;25.50;99.90
23079;DHT22;11707;50.830;4.364;2022-08-19T13:18:45;25.30;99.90
23079;DHT22;11707;50.830;4.364;2022-08-19T13:21:13;24.80;99.90
23079;DHT22;11707;50.830;4.364;2022-08-19T13:23:40;24.70;99.90
23079;DHT22;11707;50.830;4.364;2022-08-19T13:26:07;24.40;99.90
23079;DHT22;11707;50.830;4.364;2022-08-19T13:28:34;24.10;99.90
23079;DHT22;11707;50.830;4.364;2022-08-19T13:31:20;24.10;99.90
23079;DHT22;11707;50.830;4.364;2022-08-19T13:34:05;24.20;99.90
23079;DHT22;11707;50.830;4.364;2022-08-19T13:36:32;24.30;99.90
23079;DHT22;11707;50.830;4.364;2022-08-19T13:38:58;24.30;99.90
23079;DHT22;11707;50.830;4.364;2022-08-19T13:41:25;24.20;99.90
23079;DHT22;11707;50.830;4.364;2022-08-19T13:43:50;24.10;99.90
23079;DHT22;11707;50.830;4.364;2022-08-19T13:46:16;24.10;99.90
23079;DHT22;11707;50.830;4.364;2022-08-19T13:48:42;24.30;99.90
23079;DHT22;11707;50.830;4.364;2022-08-19T13:51:08;24.50;99.90
23079;DHT22;11707;50.830;4.364;2022-08-19T13:53:36;24.50;99.90
23079;DHT22;11707;50.830;4.364;2022-08-19T13:56:07;24.30;99.90
23079;DHT22;11707;50.830;4.364;2022-08-19T13:58:33;24.30;99.90
23079;DHT22;11707;50.830;4.364;2022-08-19T14:00:59;24.20;99.90
23079;DHT22;11707;50.830;4.364;2022-08-19T14:03:26;24.10;99.90
23079;DHT22;11707;50.830;4.364;2022-08-19T14:05:51;24.20;99.90
23079;DHT22;11707;50.830;4.364;2022-08-19T14:08:17;24.10;99.90
23079;DHT22;11707;50.830;4.364;2022-08-19T14:10:43;23.90;99.90
23079;DHT22;11707;50.830;4.364;2022-08-19T14:13:12;23.30;99.90
23079;DHT22;11707;50.830;4.364;2022-08-19T14:15:38;22.70;99.90
23079;DHT22;11707;50.830;4.364;2022-08-19T14:18:04;22.50;99.90
23079;DHT22;11707;50.830;4.364;2022-08-19T14:20:29;22.50;99.90
23079;DHT22;11707;50.830;4.364;2022-08-19T14:22:55;22.50;99.90
23079;DHT22;11707;50.830;4.364;2022-08-19T14:25:24;22.80;99.90
23079;DHT22;11707;50.830;4.364;2022-08-19T14:27:51;22.90;99.90
23079;DHT22;11707;50.830;4.364;2022-08-19T14:30:20;22.80;99.90
23079;DHT22;11707;50.830;4.364;2022-08-19T14:32:46;22.90;99.90
23079;DHT22;11707;50.830;4.364;2022-08-19T14:35:13;22.90;99.90
23079;DHT22;11707;50.830;4.364;2022-08-19T14:37:40;22.60;99.90
23079;DHT22;11707;50.830;4.364;2022-08-19T14:40:07;22.60;99.90
23079;DHT22;11707;50.830;4.364;2022-08-19T14:42:33;22.60;99.90
23079;DHT22;11707;50.830;4.364;2022-08-19T14:45:00;22.50;99.90
23079;DHT22;11707;50.830;4.364;2022-08-19T14:47:26;22.50;99.90
23079;DHT22;11707;50.830;4.364;2022-08-19T14:49:53;22.20;99.90
23079;DHT22;11707;50.830;4.364;2022-08-19T14:52:18;22.20;99.90
23079;DHT22;11707;50.830;4.364;2022-08-19T14:54:44;22.40;99.90
23079;DHT22;11707;50.830;4.364;2022-08-19T14:57:14;22.60;99.90
23079;DHT22;11707;50.830;4.364;2022-08-19T14:59:42;23.00;99.90
23079;DHT22;11707;50.830;4.364;2022-08-19T15:02:08;23.50;99.90
23079;DHT22;11707;50.830;4.364;2022-08-19T15:04:34;24.70;99.90
23079;DHT22;11707;50.830;4.364;2022-08-19T15:06:59;25.50;99.90
23079;DHT22;11707;50.830;4.364;2022-08-19T15:09:25;26.90;99.90
23079;DHT22;11707;50.830;4.364;2022-08-19T15:11:50;26.80;99.90
23079;DHT22;11707;50.830;4.364;2022-08-19T15:14:16;26.80;99.90
23079;DHT22;11707;50.830;4.364;2022-08-19T15:16:42;26.50;99.90
23079;DHT22;11707;50.830;4.364;2022-08-19T15:19:08;26.70;99.90
23079;DHT22;11707;50.830;4.364;2022-08-19T15:21:34;26.10;99.90
23079;DHT22;11707;50.830;4.364;2022-08-19T15:24:02;25.50;99.90
23079;DHT22;11707;50.830;4.364;2022-08-19T15:26:29;25.10;99.90
23079;DHT22;11707;50.830;4.364;2022-08-19T15:28:58;24.60;99.90
23079;DHT22;11707;50.830;4.364;2022-08-19T15:31:25;24.60;99.90
23079;DHT22;11707;50.830;4.364;2022-08-19T15:33:52;24.70;99.90
23079;DHT22;11707;50.830;4.364;2022-08-19T15:36:21;24.80;99.90
23079;DHT22;11707;50.830;4.364;2022-08-19T15:38:51;24.70;99.90
23079;DHT22;11707;50.830;4.364;2022-08-19T15:41:23;24.90;99.90
23079;DHT22;11707;50.830;4.364;2022-08-19T15:44:04;24.90;99.90
23079;DHT22;11707;50.830;4.364;2022-08-19T15:46:33;24.80;99.90
23079;DHT22;11707;50.830;4.364;2022-08-19T15:49:00;24.30;99.90
23079;DHT22;11707;50.830;4.364;2022-08-19T15:51:32;23.90;99.90
23079;DHT22;11707;50.830;4.364;2022-08-19T15:54:01;24.00;99.90